Time;durP1;ratioP1;P1;durP2;ratioP2;P2;SDS_P1;SDS_P2;PMS_P1;PMS_P2;Temp;Humidity;BMP_temperature;BMP_pressure;BME280_temperature;BME280_humidity;BME280_pressure;Samples;Min_cycle;Max_cycle;Signal;HPM_P1;HPM_P2
2022/07/29 00:00:26;;;;;;;3.52;2.20;;;;;;;19.22;60.21;100183.55;1693218;83;21036;-70
2022/07/29 00:02:53;;;;;;;5.85;2.37;;;;;;;19.18;60.53;100181.70;1693432;84;21084;-69
2022/07/29 00:05:20;;;;;;;6.47;2.37;;;;;;;19.12;60.87;100189.14;1726499;83;21078;-69
2022/07/29 00:07:47;;;;;;;4.42;2.40;;;;;;;19.04;61.28;100189.81;1693764;83;21105;-66
2022/07/29 00:10:13;;;;;;;7.05;2.75;;;;;;;18.95;61.56;100187.45;1699481;82;21570;-69
2022/07/29 00:12:40;;;;;;;3.83;2.33;;;;;;;18.89;61.78;100194.09;1699020;84;20972;-69
2022/07/29 00:15:08;;;;;;;3.08;2.77;;;;;;;18.82;62.08;100197.72;1719133;82;20968;-67
2022/07/29 00:17:37;;;;;;;7.75;2.45;;;;;;;18.77;62.20;100195.05;1713566;83;21497;-69
2022/07/29 00:20:05;;;;;;;5.05;2.80;;;;;;;18.75;62.46;100196.73;1702608;81;21196;-66
2022/07/29 00:22:32;;;;;;;2.45;2.20;;;;;;;18.71;62.54;100199.20;1682359;83;21140;-68
2022/07/29 00:24:59;;;;;;;2.90;2.25;;;;;;;18.70;62.54;100203.02;1688642;84;21035;-70
2022/07/29 00:27:27;;;;;;;3.33;2.80;;;;;;;18.70;62.58;100202.23;1692655;84;21599;-72
2022/07/29 00:29:53;;;;;;;3.83;2.70;;;;;;;18.67;62.84;100198.71;1691176;84;21036;-70
2022/07/29 00:32:20;;;;;;;2.70;2.50;;;;;;;18.62;62.95;100196.86;1699295;84;22124;-69
2022/07/29 00:37:32;;;;;;;7.22;2.87;;;;;;;18.46;63.37;100189.95;1685777;82;21713;-69
2022/07/29 00:40:00;;;;;;;4.90;3.08;;;;;;;18.37;63.57;100183.48;1672350;84;21078;-68
2022/07/29 00:42:27;;;;;;;3.08;2.77;;;;;;;18.33;63.43;100182.45;1706071;83;21486;-70
2022/07/29 00:44:54;;;;;;;3.00;2.45;;;;;;;18.30;63.22;100179.77;1705033;83;21144;-70
2022/07/29 00:47:21;;;;;;;3.37;3.00;;;;;;;18.32;63.00;100178.09;1707348;83;21018;-70
2022/07/29 00:49:47;;;;;;;3.67;2.72;;;;;;;18.36;62.89;100178.34;1708812;83;21548;-74
2022/07/29 00:52:14;;;;;;;5.40;3.17;;;;;;;18.41;62.68;100178.30;1688105;84;21017;-71
2022/07/29 00:54:41;;;;;;;10.70;3.60;;;;;;;18.45;62.35;100180.70;1692589;83;21631;-73
2022/07/29 00:57:08;;;;;;;4.92;3.00;;;;;;;18.49;61.81;100178.47;1694234;83;21118;-71
2022/07/29 00:59:35;;;;;;;6.95;4.40;;;;;;;18.51;61.44;100169.43;1699510;84;21518;-72
2022/07/29 01:02:03;;;;;;;3.65;3.25;;;;;;;18.55;61.18;100165.08;1693615;83;21123;-72
2022/07/29 01:04:30;;;;;;;4.60;2.87;;;;;;;18.57;61.70;100167.50;1699233;84;21043;-71
2022/07/29 01:06:57;;;;;;;8.88;3.50;;;;;;;18.56;62.17;100167.26;1694796;84;21470;-73
2022/07/29 01:09:24;;;;;;;6.25;3.27;;;;;;;18.54;62.39;100166.73;1699055;83;21264;-73
2022/07/29 01:11:51;;;;;;;3.45;3.05;;;;;;;18.52;62.38;100171.06;1721981;83;21015;-73
2022/07/29 01:14:18;;;;;;;4.28;3.10;;;;;;;18.52;62.51;100175.15;1746649;82;21012;-72
2022/07/29 01:17:14;;;;;;;6.17;3.37;;;;;;;18.50;62.71;100167.84;1725693;81;21094;-72
2022/07/29 01:20:11;;;;;;;7.25;3.27;;;;;;;18.51;62.50;100180.91;1681816;84;20948;-72
2022/07/29 01:23:05;;;;;;;4.20;3.10;;;;;;;18.49;62.80;100177.65;1722481;81;21249;-72
2022/07/29 01:26:22;;;;;;;5.40;4.70;;;;;;;18.45;62.73;100177.97;1723326;82;21576;-73
2022/07/29 01:29:17;;;;;;;5.03;3.60;;;;;;;18.47;61.90;100177.11;1722669;82;21046;-72
2022/07/29 01:31:58;;;;;;;5.85;3.20;;;;;;;18.49;61.26;100175.74;1697328;83;21050;-72
2022/07/29 01:34:52;;;;;;;7.80;4.72;;;;;;;18.51;62.04;100174.88;1689689;84;21016;-73
2022/07/29 01:37:42;;;;;;;6.97;5.90;;;;;;;18.51;61.72;100176.82;1688504;81;21154;-72
2022/07/29 01:40:16;;;;;;;4.53;4.12;;;;;;;18.52;62.18;100183.32;1691658;84;21090;-72
2022/07/29 01:42:43;;;;;;;5.17;4.50;;;;;;;18.47;62.92;100179.84;1687358;82;20975;-73
2022/07/29 01:45:22;;;;;;;4.95;3.55;;;;;;;18.38;63.87;100180.22;1686737;84;21120;-72
2022/07/29 01:48:02;;;;;;;8.40;3.50;;;;;;;18.26;64.51;100177.36;1675235;83;21092;-73
2022/07/29 01:50:34;;;;;;;6.45;2.95;;;;;;;18.19;64.84;100182.87;1698620;82;21253;-70
2022/07/29 01:53:09;;;;;;;7.92;3.52;;;;;;;18.13;65.19;100184.83;1726280;81;21517;-72
2022/07/29 01:55:39;;;;;;;4.30;3.37;;;;;;;18.09;65.20;100180.24;1696543;83;20976;-72
2022/07/29 01:58:06;;;;;;;7.35;3.47;;;;;;;18.06;65.31;100172.66;1675734;82;21079;-71
2022/07/29 02:00:33;;;;;;;6.50;3.47;;;;;;;17.98;65.72;100176.83;1668287;84;21105;-73
2022/07/29 02:03:03;;;;;;;4.08;3.50;;;;;;;17.89;66.06;100173.08;1678712;83;21824;-73
2022/07/29 02:05:30;;;;;;;6.25;2.70;;;;;;;17.83;66.43;100174.25;1675270;84;20967;-72
2022/07/29 02:07:58;;;;;;;3.15;2.40;;;;;;;17.80;66.66;100175.61;1697433;83;21032;-73
2022/07/29 02:10:28;;;;;;;3.95;2.90;;;;;;;17.77;66.86;100180.82;1697394;84;20988;-72
2022/07/29 02:12:56;;;;;;;5.15;3.35;;;;;;;17.68;67.15;100192.87;1699944;84;21028;-72
2022/07/29 02:15:25;;;;;;;4.85;3.30;;;;;;;17.54;67.56;100189.14;1699416;84;20956;-72
2022/07/29 02:17:56;;;;;;;5.40;3.62;;;;;;;17.42;67.79;100190.84;1693602;84;20999;-71
2022/07/29 02:20:23;;;;;;;6.12;4.15;;;;;;;17.29;68.08;100189.31;1701434;84;21062;-73
2022/07/29 02:22:52;;;;;;;13.48;7.67;;;;;;;17.22;68.27;100182.81;1700477;83;21063;-73
2022/07/29 02:25:19;;;;;;;14.43;8.08;;;;;;;17.18;68.67;100185.84;1701044;84;21110;-73
2022/07/29 02:27:45;;;;;;;18.82;9.40;;;;;;;17.11;68.74;100188.61;1673024;84;21074;-72
2022/07/29 02:30:13;;;;;;;28.55;13.53;;;;;;;17.02;68.83;100187.03;1700819;84;21075;-71
2022/07/29 02:32:40;;;;;;;26.52;14.38;;;;;;;16.90;69.19;100189.25;1726574;82;21004;-72
2022/07/29 02:35:09;;;;;;;43.30;18.92;;;;;;;16.79;69.54;100183.05;1726692;81;20979;-72
2022/07/29 02:37:36;;;;;;;37.85;16.62;;;;;;;16.70;69.75;100189.34;1692923;83;20948;-71
2022/07/29 02:40:05;;;;;;;28.50;15.05;;;;;;;16.67;69.75;100189.36;1726529;83;21319;-71
2022/07/29 02:42:32;;;;;;;25.37;11.57;;;;;;;16.68;69.73;100190.99;1700572;81;21004;-72
2022/07/29 02:44:58;;;;;;;22.25;11.28;;;;;;;16.76;69.31;100189.05;1735788;79;21054;-70
2022/07/29 02:47:37;;;;;;;25.77;12.13;;;;;;;16.86;69.06;100186.83;1690404;83;20917;-72
2022/07/29 02:50:15;;;;;;;17.60;9.08;;;;;;;16.94;68.96;100181.62;1726770;83;21045;-72
2022/07/29 02:52:48;;;;;;;17.73;6.20;;;;;;;17.11;68.55;100195.41;1725902;81;21747;-74
2022/07/29 02:55:26;;;;;;;13.72;6.45;;;;;;;17.23;68.00;100194.50;1695979;84;21522;-73
2022/07/29 02:58:03;;;;;;;10.95;6.80;;;;;;;17.37;67.21;100192.78;1716551;81;20968;-72
2022/07/29 03:00:33;;;;;;;11.25;6.25;;;;;;;17.52;66.19;100193.23;1674021;84;21075;-70
2022/07/29 03:03:04;;;;;;;6.17;5.00;;;;;;;17.61;65.82;100195.09;1696046;82;20992;-71
2022/07/29 03:05:31;;;;;;;12.30;5.80;;;;;;;17.68;65.44;100197.50;1726670;82;21129;-69
2022/07/29 03:08:04;;;;;;;11.05;5.67;;;;;;;17.70;65.41;100203.45;1690454;82;21011;-71
2022/07/29 03:10:32;;;;;;;9.10;5.45;;;;;;;17.69;65.14;100205.38;1705464;84;21042;-70
2022/07/29 03:13:01;;;;;;;10.72;5.55;;;;;;;17.73;64.96;100201.54;1697954;83;20995;-71
2022/07/29 03:15:29;;;;;;;9.88;5.85;;;;;;;17.74;64.73;100196.37;1705215;82;21083;-71
2022/07/29 03:17:55;;;;;;;8.53;5.78;;;;;;;17.74;64.61;100205.34;1696338;82;21251;-71
2022/07/29 03:20:24;;;;;;;6.90;4.42;;;;;;;17.76;64.69;100200.41;1733053;82;21054;-70
2022/07/29 03:22:51;;;;;;;9.80;4.90;;;;;;;17.79;64.45;100204.49;1705186;82;21064;-70
2022/07/29 03:25:19;;;;;;;6.83;3.85;;;;;;;17.81;64.71;100199.56;1704367;82;21090;-71
2022/07/29 03:27:48;;;;;;;6.53;3.83;;;;;;;17.82;64.82;100198.47;1714756;83;21064;-69
2022/07/29 03:30:15;;;;;;;15.68;4.75;;;;;;;17.84;64.57;100202.52;1707886;83;21229;-70
2022/07/29 03:32:43;;;;;;;9.35;5.33;;;;;;;17.90;64.60;100201.92;1695139;83;21192;-72
2022/07/29 03:35:09;;;;;;;14.25;5.40;;;;;;;17.96;64.88;100200.80;1704656;82;21047;-70
2022/07/29 03:37:38;;;;;;;9.20;4.33;;;;;;;17.96;65.23;100204.88;1673252;84;21609;-70
2022/07/29 03:40:08;;;;;;;9.48;4.92;;;;;;;17.97;65.31;100199.70;1719473;83;21065;-70
2022/07/29 03:42:39;;;;;;;7.62;4.28;;;;;;;17.96;65.57;100199.98;1719661;81;21096;-71
2022/07/29 03:45:10;;;;;;;8.18;3.80;;;;;;;17.99;65.49;100202.11;1726151;83;21026;-70
2022/07/29 03:47:43;;;;;;;5.90;3.67;;;;;;;18.03;64.76;100210.81;1714288;82;21014;-73
2022/07/29 03:50:13;;;;;;;6.67;3.40;;;;;;;18.11;64.19;100213.45;1724839;82;22528;-73
2022/07/29 03:52:41;;;;;;;5.55;3.87;;;;;;;18.20;64.06;100226.16;1725278;81;21344;-73
2022/07/29 03:55:09;;;;;;;8.38;3.20;;;;;;;18.26;64.44;100219.57;1725443;83;21160;-71
2022/07/29 03:57:36;;;;;;;7.53;4.15;;;;;;;18.33;63.61;100221.13;1699676;83;20912;-74
2022/07/29 04:00:05;;;;;;;7.35;5.30;;;;;;;18.39;62.54;100215.34;1720455;81;21086;-71
2022/07/29 04:02:32;;;;;;;4.92;3.87;;;;;;;18.49;62.05;100217.15;1667971;85;21090;-71
2022/07/29 04:05:01;;;;;;;8.88;5.22;;;;;;;18.60;61.69;100218.70;1700974;83;21081;-71
2022/07/29 04:07:29;;;;;;;8.48;7.03;;;;;;;18.67;62.55;100223.23;1726786;81;22249;-71
2022/07/29 04:09:57;;;;;;;8.10;3.98;;;;;;;18.72;62.55;100217.73;1695604;83;21150;-70
2022/07/29 04:12:25;;;;;;;9.10;4.70;;;;;;;18.77;61.69;100224.48;1726085;83;21547;-72
2022/07/29 04:14:52;;;;;;;11.22;4.25;;;;;;;18.85;61.06;100226.55;1684225;83;21036;-71
2022/07/29 04:17:19;;;;;;;8.58;4.30;;;;;;;18.94;60.60;100226.75;1741591;80;21551;-72
2022/07/29 04:19:46;;;;;;;12.18;4.75;;;;;;;19.05;60.66;100228.22;1746763;80;22031;-71
2022/07/29 04:22:14;;;;;;;9.65;4.20;;;;;;;19.13;60.47;100228.95;1734674;80;21185;-71
2022/07/29 04:24:40;;;;;;;6.87;3.80;;;;;;;19.20;59.94;100224.48;1744063;81;20984;-72
2022/07/29 04:27:10;;;;;;;6.60;3.02;;;;;;;19.28;60.00;100227.35;1726694;83;21043;-71
2022/07/29 04:29:39;;;;;;;5.83;3.52;;;;;;;19.34;59.11;100228.91;1721507;82;21047;-72
2022/07/29 04:32:06;;;;;;;4.25;2.30;;;;;;;19.41;59.06;100218.45;1723944;82;21910;-70
2022/07/29 04:34:33;;;;;;;5.40;2.80;;;;;;;19.48;58.02;100224.37;1723824;82;21018;-71
2022/07/29 04:37:01;;;;;;;7.60;2.98;;;;;;;19.54;57.00;100216.92;1694432;83;21556;-71
2022/07/29 04:39:29;;;;;;;5.40;2.72;;;;;;;19.61;56.47;100223.38;1725679;81;21503;-70
2022/07/29 04:41:56;;;;;;;4.37;2.85;;;;;;;19.68;56.04;100222.44;1727274;82;21017;-71
2022/07/29 04:44:23;;;;;;;10.50;3.47;;;;;;;19.76;55.21;100228.61;1734272;81;21097;-70
2022/07/29 04:46:49;;;;;;;3.95;2.30;;;;;;;19.82;55.13;100224.66;1689444;83;21539;-70
2022/07/29 04:49:17;;;;;;;2.40;2.02;;;;;;;19.88;54.48;100222.12;1720439;82;21011;-70
2022/07/29 04:51:46;;;;;;;3.15;2.22;;;;;;;19.94;54.48;100219.56;1718933;82;21026;-71
2022/07/29 04:54:13;;;;;;;5.67;2.25;;;;;;;20.00;54.48;100212.89;1720642;81;21102;-70
2022/07/29 04:56:41;;;;;;;7.05;2.42;;;;;;;20.06;54.44;100208.16;1679616;84;21238;-71
2022/07/29 04:59:08;;;;;;;7.53;2.50;;;;;;;20.12;54.17;100208.33;1694988;84;21564;-71
2022/07/29 05:01:35;;;;;;;7.40;2.47;;;;;;;20.18;54.06;100207.95;1707102;83;21036;-70
2022/07/29 05:04:03;;;;;;;3.45;2.25;;;;;;;20.24;53.87;100214.92;1717201;83;22185;-71
2022/07/29 05:06:30;;;;;;;9.08;2.98;;;;;;;20.30;53.80;100211.02;1699453;83;21042;-71
2022/07/29 05:08:58;;;;;;;7.97;2.67;;;;;;;20.37;53.71;100211.45;1710410;83;21008;-71
2022/07/29 05:11:27;;;;;;;7.12;2.50;;;;;;;20.45;53.57;100212.66;1703893;83;21494;-71
2022/07/29 05:13:55;;;;;;;5.92;2.08;;;;;;;20.52;53.40;100205.44;1711615;83;21621;-71
2022/07/29 05:16:22;;;;;;;5.25;2.62;;;;;;;20.57;53.37;100202.05;1697367;83;21047;-71
2022/07/29 05:18:49;;;;;;;7.50;2.77;;;;;;;20.65;53.51;100205.98;1715087;83;21112;-71
2022/07/29 05:21:17;;;;;;;5.53;2.40;;;;;;;20.72;53.54;100202.31;1716121;82;21222;-72
2022/07/29 05:23:44;;;;;;;5.03;2.22;;;;;;;20.87;53.51;100208.80;1706263;83;20952;-70
2022/07/29 05:26:11;;;;;;;7.70;2.65;;;;;;;20.96;53.43;100213.80;1694924;83;21605;-71
2022/07/29 05:28:38;;;;;;;6.30;2.42;;;;;;;20.96;53.43;100213.80;1719711;82;21046;-71
2022/07/29 05:31:05;;;;;;;10.65;3.17;;;;;;;21.13;52.53;100220.87;1708210;82;21517;-71
2022/07/29 05:33:32;;;;;;;5.05;2.15;;;;;;;21.13;52.53;100220.87;1710726;82;21144;-72
2022/07/29 05:36:01;;;;;;;3.08;2.00;;;;;;;21.22;52.68;100223.13;1705410;82;21596;-71
2022/07/29 05:38:28;;;;;;;8.38;2.52;;;;;;;21.31;52.77;100220.47;1718806;82;21011;-74
2022/07/29 05:40:58;;;;;;;8.10;4.47;;;;;;;21.39;52.42;100219.73;1688413;83;21089;-73
2022/07/29 05:43:28;;;;;;;16.65;14.03;;;;;;;21.48;52.34;100222.56;1688695;84;21617;-72
2022/07/29 05:45:56;;;;;;;6.40;5.53;;;;;;;21.54;52.17;100216.64;1697226;84;21240;-71
2022/07/29 05:48:23;;;;;;;5.75;2.72;;;;;;;21.61;51.88;100222.52;1695896;84;21126;-71
2022/07/29 05:50:50;;;;;;;4.55;2.05;;;;;;;21.66;51.31;100226.50;1721251;81;21008;-72
2022/07/29 05:53:18;;;;;;;3.60;1.60;;;;;;;21.71;50.74;100222.27;1713720;81;21071;-71
2022/07/29 05:55:47;;;;;;;5.10;3.02;;;;;;;21.75;50.89;100223.27;1733951;81;21041;-71
2022/07/29 05:58:14;;;;;;;6.30;2.10;;;;;;;21.82;50.85;100226.14;1697463;84;21398;-71
2022/07/29 06:00:41;;;;;;;3.08;2.17;;;;;;;21.86;50.43;100227.13;1705287;81;21031;-71
2022/07/29 06:03:09;;;;;;;2.95;1.62;;;;;;;21.90;50.61;100228.12;1691779;84;20971;-71
2022/07/29 06:05:36;;;;;;;1.75;1.52;;;;;;;21.94;49.96;100227.22;1685341;84;21004;-71
2022/07/29 06:08:06;;;;;;;3.47;2.20;;;;;;;21.99;49.89;100234.49;1705778;81;21082;-70
2022/07/29 06:10:35;;;;;;;8.88;1.80;;;;;;;22.04;49.34;100234.37;1687603;83;21156;-71
2022/07/29 06:13:02;;;;;;;5.17;1.90;;;;;;;22.11;48.99;100234.72;1726433;82;21031;-73
2022/07/29 06:15:30;;;;;;;5.65;1.82;;;;;;;22.16;48.12;100244.18;1714742;81;20947;-72
2022/07/29 06:18:01;;;;;;;4.75;1.65;;;;;;;22.23;48.33;100247.30;1709028;83;21580;-73
2022/07/29 06:20:29;;;;;;;5.58;2.10;;;;;;;22.26;48.59;100239.00;1726584;83;21205;-75
2022/07/29 06:22:58;;;;;;;7.00;2.55;;;;;;;22.30;48.71;100235.31;1688512;83;21000;-73
2022/07/29 06:25:25;;;;;;;1.50;1.40;;;;;;;22.36;48.30;100230.52;1713600;82;20989;-74
2022/07/29 06:27:53;;;;;;;2.60;1.60;;;;;;;22.39;47.97;100235.38;1721118;81;21985;-71
2022/07/29 06:30:21;;;;;;;4.22;1.42;;;;;;;22.43;48.07;100233.06;1755244;81;21413;-75
2022/07/29 06:32:50;;;;;;;3.10;1.55;;;;;;;22.45;47.79;100231.36;1726953;81;21079;-74
2022/07/29 06:35:17;;;;;;;4.37;2.60;;;;;;;22.46;47.77;100233.80;1707952;83;21131;-74
2022/07/29 06:37:45;;;;;;;7.45;2.20;;;;;;;22.53;47.90;100235.53;1724090;83;21686;-72
2022/07/29 06:42:58;;;;;;;3.52;1.80;;;;;;;22.68;47.87;100228.83;1723778;82;21602;-72
2022/07/29 06:45:25;;;;;;;4.28;1.80;;;;;;;22.74;47.53;100228.94;1695446;83;21009;-71
2022/07/29 06:47:53;;;;;;;4.15;2.20;;;;;;;22.81;47.31;100223.00;1689044;83;21175;-71
2022/07/29 06:50:21;;;;;;;3.27;2.08;;;;;;;22.87;46.74;100232.15;1723204;83;21001;-72
2022/07/29 06:52:48;;;;;;;4.33;1.60;;;;;;;22.93;46.33;100229.48;1687428;83;21117;-72
2022/07/29 06:55:19;;;;;;;5.95;2.42;;;;;;;22.99;46.36;100230.95;1692152;84;21017;-71
2022/07/29 06:57:47;;;;;;;3.15;1.57;;;;;;;23.07;46.21;100229.94;1697801;83;21000;-72
2022/07/29 07:00:15;;;;;;;7.83;2.05;;;;;;;23.11;45.82;100234.47;1739906;81;21247;-72
2022/07/29 07:02:42;;;;;;;3.52;1.98;;;;;;;23.13;45.67;100234.94;1721497;82;21052;-71
2022/07/29 07:05:09;;;;;;;2.25;1.82;;;;;;;23.19;45.50;100229.55;1746889;80;21023;-72
2022/07/29 07:07:36;;;;;;;3.25;1.55;;;;;;;23.22;45.12;100237.13;1708668;81;21075;-72
2022/07/29 07:10:05;;;;;;;11.40;4.83;;;;;;;23.25;45.17;100234.33;1722601;82;21047;-72
2022/07/29 07:12:35;;;;;;;3.37;2.75;;;;;;;23.29;45.44;100240.22;1688224;84;20974;-71
2022/07/29 07:15:03;;;;;;;7.17;4.78;;;;;;;23.34;45.49;100235.95;1706320;81;21019;-71
2022/07/29 07:17:30;;;;;;;4.08;3.12;;;;;;;23.37;45.59;100232.55;1690295;83;21544;-72
2022/07/29 07:20:00;;;;;;;5.08;3.37;;;;;;;23.42;45.47;100235.70;1726572;82;21023;-72
2022/07/29 07:22:27;;;;;;;6.35;2.25;;;;;;;23.45;45.14;100236.48;1692231;83;21047;-72
2022/07/29 07:24:56;;;;;;;4.92;2.05;;;;;;;23.49;44.89;100235.27;1720405;81;21786;-74
2022/07/29 07:27:22;;;;;;;2.85;2.00;;;;;;;23.55;44.75;100239.48;1719551;82;21056;-74
2022/07/29 07:29:49;;;;;;;3.62;1.67;;;;;;;23.61;44.84;100234.85;1727806;81;21010;-72
2022/07/29 07:32:17;;;;;;;3.72;1.72;;;;;;;23.69;44.37;100238.16;1707055;83;21050;-73
2022/07/29 07:34:44;;;;;;;8.80;3.47;;;;;;;23.78;44.25;100245.05;1678496;83;21060;-73
2022/07/29 07:37:11;;;;;;;5.47;2.30;;;;;;;23.85;43.89;100239.29;1713307;82;21247;-73
2022/07/29 07:39:41;;;;;;;3.83;2.70;;;;;;;23.93;44.00;100237.69;1708408;82;21056;-72
2022/07/29 07:42:10;;;;;;;5.78;3.02;;;;;;;24.00;43.95;100231.11;1712730;82;21331;-71
2022/07/29 07:44:38;;;;;;;6.72;2.05;;;;;;;24.08;43.73;100231.66;1709844;83;21005;-74
2022/07/29 07:47:05;;;;;;;15.35;3.25;;;;;;;24.15;43.49;100231.98;1719131;82;20972;-73
2022/07/29 07:49:33;;;;;;;8.43;2.98;;;;;;;24.21;43.43;100233.45;1716483;82;21220;-72
2022/07/29 07:52:00;;;;;;;4.85;2.40;;;;;;;24.28;43.47;100236.48;1724884;81;20901;-75
2022/07/29 07:54:29;;;;;;;4.87;2.83;;;;;;;24.34;43.17;100244.00;1723941;83;21064;-73
2022/07/29 07:56:57;;;;;;;7.12;3.65;;;;;;;24.38;43.28;100245.52;1710973;81;21564;-73
2022/07/29 07:59:24;;;;;;;4.97;2.72;;;;;;;24.43;43.28;100247.53;1689390;84;21059;-72
2022/07/29 08:01:53;;;;;;;4.50;2.87;;;;;;;24.53;43.22;100251.87;1722924;82;22126;-73
2022/07/29 08:04:21;;;;;;;3.08;2.65;;;;;;;24.61;43.06;100246.89;1708474;82;20972;-73
2022/07/29 08:06:49;;;;;;;11.57;3.95;;;;;;;24.63;42.75;100244.06;1696446;83;21046;-74
2022/07/29 08:09:18;;;;;;;3.60;2.22;;;;;;;24.66;42.73;100246.71;1718613;81;21722;-74
2022/07/29 08:11:46;;;;;;;3.22;2.90;;;;;;;24.70;42.86;100251.22;1719053;83;20988;-75
2022/07/29 08:14:13;;;;;;;3.92;2.65;;;;;;;24.71;42.52;100247.91;1706663;81;21166;-71
2022/07/29 08:16:43;;;;;;;4.87;3.42;;;;;;;24.73;42.64;100240.95;1699303;81;20931;-72
2022/07/29 08:19:11;;;;;;;7.95;2.58;;;;;;;24.83;42.75;100248.03;1696287;82;20938;-71
2022/07/29 08:21:40;;;;;;;10.00;3.27;;;;;;;24.91;42.67;100246.39;1690544;83;21021;-71
2022/07/29 08:26:57;;;;;;;10.08;2.67;;;;;;;25.10;42.13;100244.83;1691317;84;21077;-72
2022/07/29 08:29:26;;;;;;;6.78;2.65;;;;;;;25.19;41.89;100251.08;1691127;83;21111;-74
2022/07/29 08:31:53;;;;;;;6.30;3.05;;;;;;;25.22;41.50;100249.63;1723449;82;21114;-74
2022/07/29 08:34:22;;;;;;;3.72;2.60;;;;;;;25.28;41.32;100247.45;1694600;83;21062;-74
2022/07/29 08:36:50;;;;;;;5.55;3.15;;;;;;;25.31;41.29;100244.86;1725804;82;21028;-73
2022/07/29 08:39:17;;;;;;;3.22;2.27;;;;;;;25.38;41.10;100252.01;1726526;81;21150;-73
2022/07/29 08:41:44;;;;;;;3.83;2.90;;;;;;;25.47;40.74;100242.30;1726498;82;21038;-72
2022/07/29 08:44:11;;;;;;;6.03;2.65;;;;;;;25.51;40.71;100240.51;1736251;81;21020;-73
2022/07/29 08:46:39;;;;;;;4.40;2.27;;;;;;;25.52;41.35;100240.16;1701252;83;21056;-72
2022/07/29 08:49:05;;;;;;;3.30;2.42;;;;;;;25.53;41.38;100240.96;1733855;81;21098;-73
2022/07/29 08:51:35;;;;;;;5.65;2.60;;;;;;;25.51;41.25;100247.39;1721543;81;21062;-73
2022/07/29 08:54:02;;;;;;;3.27;2.27;;;;;;;25.47;41.20;100245.05;1717144;83;21517;-73
2022/07/29 08:56:29;;;;;;;4.45;2.37;;;;;;;25.49;41.31;100246.91;1724934;83;21079;-73
2022/07/29 08:58:57;;;;;;;3.20;2.50;;;;;;;25.58;41.38;100244.92;1723614;82;21141;-73
2022/07/29 09:01:28;;;;;;;6.08;2.55;;;;;;;25.61;40.95;100247.03;1728422;81;21018;-72
2022/07/29 09:03:57;;;;;;;4.45;2.70;;;;;;;25.63;40.98;100238.41;1721671;82;21106;-73
2022/07/29 09:06:26;;;;;;;5.40;2.62;;;;;;;25.71;40.98;100242.45;1718813;82;21552;-72
2022/07/29 09:08:56;;;;;;;3.62;2.80;;;;;;;25.79;40.41;100240.22;1708676;81;21615;-73
2022/07/29 09:11:24;;;;;;;2.42;2.12;;;;;;;25.84;40.49;100233.13;1685897;84;21592;-71
2022/07/29 09:13:52;;;;;;;2.35;2.12;;;;;;;25.94;40.63;100234.66;1687869;84;21087;-72
2022/07/29 09:16:21;;;;;;;7.28;3.20;;;;;;;26.10;40.80;100224.58;1695422;83;21161;-73
2022/07/29 09:18:48;;;;;;;10.72;2.65;;;;;;;26.29;40.90;100225.45;1671371;84;21044;-70
2022/07/29 09:24:13;;;;;;;4.67;2.37;;;;;;;26.53;39.54;100234.34;1705158;82;21122;-73
2022/07/29 09:26:46;;;;;;;4.75;2.40;;;;;;;26.47;39.38;100240.69;1713499;82;21083;-73
2022/07/29 09:29:18;;;;;;;4.00;2.30;;;;;;;26.41;39.66;100229.06;1670672;85;21442;-73
2022/07/29 09:31:50;;;;;;;6.92;3.27;;;;;;;26.48;39.84;100233.42;1673272;84;21541;-73
2022/07/29 09:34:28;;;;;;;5.40;3.08;;;;;;;26.57;39.95;100229.17;1693611;82;21603;-74
2022/07/29 09:36:55;;;;;;;6.75;2.90;;;;;;;26.63;39.50;100237.47;1700286;83;34079;-73
2022/07/29 09:39:38;;;;;;;4.17;3.25;;;;;;;26.62;39.32;100228.17;1703220;84;21000;-73
2022/07/29 09:42:06;;;;;;;3.02;2.50;;;;;;;26.59;39.25;100235.17;1691888;84;21088;-75
2022/07/29 09:44:48;;;;;;;4.35;2.58;;;;;;;26.61;39.54;100238.98;1671794;84;21044;-71
2022/07/29 09:47:18;;;;;;;6.42;2.80;;;;;;;26.63;39.42;100237.47;1688679;82;20978;-74
2022/07/29 09:49:59;;;;;;;3.75;2.62;;;;;;;26.72;39.12;100239.55;1697237;82;21001;-74
2022/07/29 09:52:27;;;;;;;2.50;2.30;;;;;;;26.84;39.07;100231.86;1701196;82;21041;-74
2022/07/29 09:55:08;;;;;;;8.15;2.37;;;;;;;26.93;38.93;100228.42;1680015;83;20959;-73
2022/07/29 09:57:35;;;;;;;6.87;2.40;;;;;;;27.02;38.77;100237.39;1678608;82;21490;-72
2022/07/29 10:00:12;;;;;;;8.65;2.40;;;;;;;27.14;38.59;100233.83;1701955;81;20979;-73
2022/07/29 10:02:43;;;;;;;9.83;2.67;;;;;;;27.17;38.31;100229.78;1721149;81;21022;-71
2022/07/29 10:05:26;;;;;;;5.50;2.60;;;;;;;27.18;38.31;100234.16;1719606;82;21035;-70
2022/07/29 10:07:55;;;;;;;5.47;4.30;;;;;;;27.25;38.21;100227.46;1706643;81;22857;-74
2022/07/29 10:10:26;;;;;;;3.60;3.30;;;;;;;27.32;38.07;100226.88;1713437;81;20953;-72
2022/07/29 10:13:13;;;;;;;2.83;2.62;;;;;;;27.31;37.77;100223.88;1704883;82;20967;-73
2022/07/29 10:15:44;;;;;;;7.25;2.22;;;;;;;27.23;37.81;100219.31;1730164;81;39232;-72
2022/07/29 10:18:14;;;;;;;4.45;2.87;;;;;;;27.21;38.08;100216.08;1735581;81;21040;-74
2022/07/29 10:20:41;;;;;;;7.90;2.80;;;;;;;27.18;37.83;100210.69;1709613;83;21333;-74
2022/07/29 10:23:09;;;;;;;3.02;2.72;;;;;;;27.15;37.99;100211.36;1716800;83;21040;-74
2022/07/29 10:25:37;;;;;;;3.72;2.95;;;;;;;27.14;38.24;100212.54;1709859;83;21050;-72
2022/07/29 10:28:05;;;;;;;2.37;2.17;;;;;;;27.22;38.37;100210.78;1712750;81;21120;-75
2022/07/29 10:30:34;;;;;;;4.90;2.25;;;;;;;27.36;38.24;100209.83;1668274;84;21607;-72
2022/07/29 10:33:30;;;;;;;3.27;2.42;;;;;;;27.48;37.92;100213.15;1692180;84;21167;-73
2022/07/29 10:36:15;;;;;;;2.35;2.15;;;;;;;27.50;37.57;100208.90;1704256;82;21085;-76
2022/07/29 10:39:09;;;;;;;3.70;2.83;;;;;;;27.43;37.75;100207.30;1705795;82;21009;-77
2022/07/29 10:42:01;;;;;;;6.03;3.50;;;;;;;27.43;37.99;100203.72;1723710;82;21004;-74
2022/07/29 10:44:28;;;;;;;6.03;3.92;;;;;;;27.52;37.64;100201.08;1718455;82;21047;-76
2022/07/29 10:46:58;;;;;;;4.83;3.10;;;;;;;27.57;37.44;100198.64;1701583;83;21543;-77
2022/07/29 10:49:26;;;;;;;6.20;2.37;;;;;;;27.51;37.30;100198.08;1654904;85;21074;-77
2022/07/29 10:52:09;;;;;;;7.78;2.52;;;;;;;27.54;37.20;100193.80;1717834;82;21571;-75
2022/07/29 10:54:45;;;;;;;4.85;2.92;;;;;;;27.54;37.15;100192.41;1679329;82;21129;-73
2022/07/29 10:57:31;;;;;;;3.05;2.10;;;;;;;27.56;37.23;100199.79;1705042;84;21062;-72
2022/07/29 11:00:11;;;;;;;2.80;2.20;;;;;;;27.67;36.90;100198.14;1708917;81;21069;-75
2022/07/29 11:02:47;;;;;;;5.60;2.35;;;;;;;27.80;36.68;100198.88;1720167;82;21517;-75
2022/07/29 11:05:18;;;;;;;2.37;2.17;;;;;;;27.80;36.39;100194.16;1714485;82;21074;-73
2022/07/29 11:08:17;;;;;;;8.97;3.43;;;;;;;27.74;37.00;100196.95;1724508;82;21504;-72
2022/07/29 11:10:43;;;;;;;7.08;2.35;;;;;;;27.77;37.45;100191.30;1699528;84;21087;-72
2022/07/29 11:13:10;;;;;;;9.98;2.87;;;;;;;27.87;37.72;100192.16;1707442;82;21108;-72
2022/07/29 11:15:55;;;;;;;6.45;2.30;;;;;;;27.99;37.75;100191.53;1712666;82;21055;-70
2022/07/29 11:18:22;;;;;;;6.60;3.15;;;;;;;28.15;37.55;100190.21;1696615;83;21071;-82
2022/07/29 11:20:55;;;;;;;14.13;10.00;;;;;;;28.25;36.71;100188.88;1727343;81;21062;-79
2022/07/29 11:23:35;;;;;;;;;;;;;;;28.30;36.30;100183.08;1728525;82;21009;-82
2022/07/29 11:26:21;;;;;;;8.33;2.90;;;;;;;28.44;36.84;100185.59;1710950;82;21870;-73
2022/07/29 11:28:58;;;;;;;3.12;2.25;;;;;;;28.55;36.31;100190.83;1697247;82;22144;-82
2022/07/29 11:31:51;;;;;;;3.42;2.12;;;;;;;28.71;35.39;100180.33;1728634;81;20956;-85
2022/07/29 11:34:29;;;;;;;4.90;3.55;;;;;;;28.74;35.11;100185.97;1737268;81;21020;-86
2022/07/29 11:37:12;;;;;;;5.10;3.05;;;;;;;28.71;35.42;100179.78;1713933;81;21031;-83
2022/07/29 11:39:49;;;;;;;9.30;4.87;;;;;;;28.65;35.80;100169.30;1719684;81;21124;-84
2022/07/29 11:42:26;;;;;;;4.80;3.45;;;;;;;28.69;35.79;100175.72;1699168;82;20980;-85
2022/07/29 11:45:19;;;;;;;4.65;2.80;;;;;;;28.77;36.10;100178.34;1712914;82;21024;-86
2022/07/29 11:47:52;;;;;;;6.00;2.70;;;;;;;28.83;36.02;100169.97;1717531;81;21050;-85
2022/07/29 11:50:38;;;;;;;9.30;3.10;;;;;;;28.83;35.63;100166.39;1724461;82;21027;-72